createdAt,value
2023-02-28T00:00:04.575Z,0
2023-02-28T00:01:04.476Z,0
2023-02-28T00:02:04.772Z,0
2023-02-28T00:03:04.771Z,0
2023-02-28T00:04:07.235Z,0
2023-02-28T00:05:04.521Z,0
2023-02-28T00:06:04.464Z,0
2023-02-28T00:07:04.452Z,0
2023-02-28T00:08:04.451Z,0
2023-02-28T00:09:04.479Z,0
2023-02-28T00:10:04.460Z,0
2023-02-28T00:11:04.591Z,0
2023-02-28T00:12:04.471Z,0
2023-02-28T00:13:04.446Z,0
2023-02-28T00:14:04.566Z,0
2023-02-28T00:15:07.374Z,0
2023-02-28T00:16:04.478Z,0
2023-02-28T00:17:05.592Z,0
2023-02-28T00:18:04.521Z,0
2023-02-28T00:19:04.545Z,0
2023-02-28T00:20:04.466Z,0
2023-02-28T00:21:04.613Z,0
2023-02-28T00:22:04.474Z,0
2023-02-28T00:23:04.553Z,0
2023-02-28T00:24:04.494Z,0
2023-02-28T00:25:04.578Z,0
2023-02-28T00:26:04.477Z,0
2023-02-28T00:27:04.500Z,0
2023-02-28T00:28:04.510Z,0
2023-02-28T00:29:04.501Z,0
2023-02-28T00:30:04.496Z,0
2023-02-28T00:31:07.603Z,0
2023-02-28T00:32:04.778Z,0
2023-02-28T00:33:07.662Z,0
2023-02-28T00:34:04.556Z,0
2023-02-28T00:35:04.489Z,0
2023-02-28T00:36:04.720Z,0
2023-02-28T00:37:04.518Z,0
2023-02-28T00:38:04.664Z,0
2023-02-28T00:39:04.656Z,0
2023-02-28T00:40:04.604Z,0
2023-02-28T00:41:04.501Z,0
2023-02-28T00:42:04.329Z,0
2023-02-28T00:43:04.532Z,0
2023-02-28T00:44:04.535Z,0
2023-02-28T00:45:04.495Z,0
2023-02-28T00:46:05.043Z,0
2023-02-28T00:47:07.557Z,0
2023-02-28T00:48:04.993Z,0
2023-02-28T00:49:04.534Z,0
2023-02-28T00:50:04.625Z,0
2023-02-28T00:51:04.540Z,0
2023-02-28T00:52:04.531Z,0
2023-02-28T00:53:04.555Z,0
2023-02-28T00:54:04.524Z,0
2023-02-28T00:55:04.607Z,0
2023-02-28T00:56:04.514Z,0
2023-02-28T00:57:04.548Z,0
2023-02-28T00:58:07.403Z,0
2023-02-28T00:59:04.556Z,0
2023-02-28T01:00:04.542Z,0
2023-02-28T01:01:04.649Z,0
2023-02-28T01:02:04.533Z,0
2023-02-28T01:03:07.671Z,0
2023-02-28T01:04:04.607Z,0
2023-02-28T01:05:04.566Z,0
2023-02-28T01:06:04.571Z,0
2023-02-28T01:07:04.536Z,0
2023-02-28T01:08:04.626Z,0
2023-02-28T01:09:07.422Z,0
2023-02-28T01:10:04.598Z,0
2023-02-28T01:11:04.576Z,0
2023-02-28T01:12:04.583Z,0
2023-02-28T01:13:04.593Z,0
2023-02-28T01:14:05.778Z,0
2023-02-28T01:15:04.555Z,0
2023-02-28T01:16:04.959Z,0
2023-02-28T01:17:05.568Z,0
2023-02-28T01:18:04.572Z,0
2023-02-28T01:19:04.821Z,0
2023-02-28T01:20:07.586Z,0
2023-02-28T01:21:04.566Z,0
2023-02-28T01:22:04.607Z,0
2023-02-28T01:23:04.572Z,0
2023-02-28T01:24:04.628Z,0
2023-02-28T01:25:07.829Z,0
2023-02-28T01:26:04.590Z,0
2023-02-28T01:27:04.612Z,0
2023-02-28T01:28:04.596Z,0
2023-02-28T01:29:04.650Z,0
2023-02-28T01:30:04.654Z,0
2023-02-28T01:31:05.045Z,0
2023-02-28T01:32:04.936Z,0
2023-02-28T01:33:05.606Z,0
2023-02-28T01:34:04.671Z,0
2023-02-28T01:35:04.650Z,0
2023-02-28T01:36:08.095Z,0
2023-02-28T01:37:04.602Z,0
2023-02-28T01:38:26.951Z,0
2023-02-28T01:39:04.631Z,0
2023-02-28T01:40:04.593Z,0
2023-02-28T01:41:04.695Z,0
2023-02-28T01:42:07.723Z,0
2023-02-28T01:43:04.782Z,0
2023-02-28T01:44:04.680Z,0
2023-02-28T01:45:04.714Z,0
2023-02-28T01:46:04.969Z,0
2023-02-28T01:47:04.829Z,0
2023-02-28T01:48:04.624Z,0
2023-02-28T01:49:04.747Z,0
2023-02-28T01:50:04.669Z,0
2023-02-28T01:51:04.660Z,0
2023-02-28T01:52:04.615Z,0
2023-02-28T01:53:07.455Z,0
2023-02-28T01:54:04.682Z,0
2023-02-28T01:55:04.630Z,0
2023-02-28T01:56:04.597Z,0
2023-02-28T01:57:04.662Z,0
2023-02-28T01:58:07.413Z,0
2023-02-28T01:59:04.633Z,0
2023-02-28T02:00:04.733Z,0
2023-02-28T02:01:04.690Z,0
2023-02-28T02:02:04.972Z,0
2023-02-28T02:03:05.013Z,0
2023-02-28T02:04:07.530Z,0
2023-02-28T02:05:05.669Z,0
2023-02-28T02:06:04.708Z,0
2023-02-28T02:07:04.680Z,0
2023-02-28T02:08:04.681Z,0
2023-02-28T02:09:06.459Z,0
2023-02-28T02:10:04.710Z,0
2023-02-28T02:11:04.629Z,0
2023-02-28T02:12:04.695Z,0
2023-02-28T02:13:04.716Z,0
2023-02-28T02:14:04.701Z,0
2023-02-28T02:15:04.722Z,0
2023-02-28T02:16:04.824Z,0
2023-02-28T02:17:04.643Z,0
2023-02-28T02:18:04.726Z,0
2023-02-28T02:19:04.864Z,0
2023-02-28T02:20:07.820Z,0
2023-02-28T02:21:04.697Z,0
2023-02-28T02:22:04.731Z,0
2023-02-28T02:23:04.712Z,0
2023-02-28T02:24:04.707Z,0
2023-02-28T02:25:04.721Z,0
2023-02-28T02:26:04.667Z,0
2023-02-28T02:27:07.753Z,0
2023-02-28T02:28:04.716Z,0
2023-02-28T02:29:04.702Z,0
2023-02-28T02:30:07.509Z,0
2023-02-28T02:31:07.622Z,0
2023-02-28T02:32:04.851Z,0
2023-02-28T02:33:04.705Z,0
2023-02-28T02:34:04.747Z,0
2023-02-28T02:35:04.708Z,0
2023-02-28T02:36:05.061Z,0
2023-02-28T02:37:04.885Z,0
2023-02-28T02:38:04.776Z,0
2023-02-28T02:39:04.743Z,0
2023-02-28T02:40:04.772Z,0
2023-02-28T02:41:04.731Z,0
2023-02-28T02:42:07.975Z,0
2023-02-28T02:43:04.667Z,0
2023-02-28T02:44:04.696Z,0
2023-02-28T02:45:04.686Z,0
2023-02-28T02:46:04.717Z,0
2023-02-28T02:47:04.777Z,0
2023-02-28T02:48:04.688Z,0
2023-02-28T02:49:04.756Z,0
2023-02-28T02:50:04.723Z,0
2023-02-28T02:51:04.741Z,0
2023-02-28T02:52:04.695Z,0
2023-02-28T02:53:04.726Z,0
2023-02-28T02:54:04.723Z,0
2023-02-28T02:55:04.737Z,0
2023-02-28T02:56:04.720Z,0
2023-02-28T02:57:04.733Z,0
2023-02-28T02:58:07.856Z,0
2023-02-28T02:59:04.748Z,0
2023-02-28T03:00:04.768Z,0
2023-02-28T03:01:05.107Z,0
2023-02-28T03:02:04.733Z,0
2023-02-28T03:03:04.780Z,0
2023-02-28T03:04:08.107Z,0
2023-02-28T03:05:04.807Z,0
2023-02-28T03:06:05.014Z,0
2023-02-28T03:07:07.426Z,0
2023-02-28T03:08:04.745Z,0
2023-02-28T03:09:04.706Z,0
2023-02-28T03:10:04.776Z,0
2023-02-28T03:11:04.751Z,0
2023-02-28T03:12:07.461Z,0
2023-02-28T03:13:04.741Z,0
2023-02-28T03:14:04.778Z,0
2023-02-28T03:15:04.810Z,0
2023-02-28T03:16:05.019Z,0
2023-02-28T03:17:04.768Z,0
2023-02-28T03:18:04.768Z,0
2023-02-28T03:19:04.755Z,0
2023-02-28T03:20:06.434Z,0
2023-02-28T03:21:04.766Z,0
2023-02-28T03:22:04.756Z,0
2023-02-28T03:23:04.796Z,0
2023-02-28T03:24:04.785Z,0
2023-02-28T03:25:07.821Z,0
2023-02-28T03:26:04.759Z,0
2023-02-28T03:27:04.790Z,0
2023-02-28T03:28:05.791Z,0
2023-02-28T03:29:04.904Z,0
2023-02-28T03:30:05.044Z,0
2023-02-28T03:31:04.761Z,0
2023-02-28T03:32:05.349Z,0
2023-02-28T03:33:04.789Z,0
2023-02-28T03:34:04.806Z,0
2023-02-28T03:35:04.783Z,0
2023-02-28T03:36:08.254Z,0
2023-02-28T03:37:04.984Z,0
2023-02-28T03:38:04.811Z,0
2023-02-28T03:39:04.787Z,0
2023-02-28T03:40:04.782Z,0
2023-02-28T03:41:07.941Z,0
2023-02-28T03:42:04.802Z,0
2023-02-28T03:43:04.834Z,0
2023-02-28T03:44:04.617Z,0
2023-02-28T03:45:04.893Z,0
2023-02-28T03:46:05.025Z,0
2023-02-28T03:47:07.757Z,0
2023-02-28T03:48:04.798Z,0
2023-02-28T03:49:04.850Z,0
2023-02-28T03:50:04.871Z,0
2023-02-28T03:51:04.815Z,0
2023-02-28T03:52:07.900Z,0
2023-02-28T03:53:04.838Z,0
2023-02-28T03:54:04.821Z,0
2023-02-28T03:55:04.841Z,0
2023-02-28T03:56:04.846Z,0
2023-02-28T03:57:04.813Z,0
2023-02-28T03:58:07.657Z,0
2023-02-28T03:59:04.835Z,0
2023-02-28T04:00:04.830Z,0
2023-02-28T04:01:04.838Z,0
2023-02-28T04:02:05.069Z,0
2023-02-28T04:03:07.568Z,0
2023-02-28T04:04:05.012Z,0
2023-02-28T04:05:04.849Z,0
2023-02-28T04:06:04.872Z,0
2023-02-28T04:07:04.859Z,0
2023-02-28T04:08:04.787Z,0
2023-02-28T04:09:08.922Z,0
2023-02-28T04:10:04.868Z,0
2023-02-28T04:11:04.812Z,0
2023-02-28T04:12:04.661Z,0
2023-02-28T04:13:04.862Z,0
2023-02-28T04:14:10.321Z,0
2023-02-28T04:15:05.141Z,0
2023-02-28T04:16:06.183Z,0
2023-02-28T04:17:04.556Z,0
2023-02-28T04:18:04.848Z,0
2023-02-28T04:19:07.578Z,0
2023-02-28T04:20:07.955Z,0
2023-02-28T04:21:04.863Z,0
2023-02-28T04:22:04.889Z,0
2023-02-28T04:23:04.834Z,0
2023-02-28T04:24:04.868Z,0
2023-02-28T04:25:05.647Z,0
2023-02-28T04:26:04.855Z,0
2023-02-28T04:27:04.944Z,0
2023-02-28T04:28:04.876Z,0
2023-02-28T04:29:04.879Z,0
2023-02-28T04:30:04.921Z,0
2023-02-28T04:31:07.997Z,0
2023-02-28T04:32:05.695Z,0
2023-02-28T04:33:04.930Z,0
2023-02-28T04:34:04.857Z,0
2023-02-28T04:35:04.920Z,0
2023-02-28T04:36:08.110Z,0
2023-02-28T04:37:19.807Z,0
2023-02-28T04:38:04.896Z,0
2023-02-28T04:39:04.877Z,0
2023-02-28T04:40:04.917Z,0
2023-02-28T04:41:04.956Z,0
2023-02-28T04:42:04.892Z,0
2023-02-28T04:43:04.870Z,0
2023-02-28T04:44:04.920Z,0
2023-02-28T04:45:04.926Z,0
2023-02-28T04:46:05.061Z,0
2023-02-28T04:47:07.693Z,0
2023-02-28T04:48:04.907Z,0
2023-02-28T04:49:04.941Z,0
2023-02-28T04:50:04.942Z,0
2023-02-28T04:51:04.860Z,0
2023-02-28T04:52:04.941Z,0
2023-02-28T04:53:04.907Z,0
2023-02-28T04:54:04.921Z,0
2023-02-28T04:55:04.922Z,0
2023-02-28T04:56:04.878Z,0
2023-02-28T04:57:05.009Z,0
2023-02-28T04:58:09.991Z,0
2023-02-28T04:59:04.900Z,0
2023-02-28T05:00:05.009Z,0
2023-02-28T05:01:04.890Z,0
2023-02-28T05:02:05.272Z,0
2023-02-28T05:03:05.038Z,0
2023-02-28T05:04:04.913Z,0
2023-02-28T05:05:05.247Z,0
2023-02-28T05:06:04.956Z,0
2023-02-28T05:07:04.938Z,0
2023-02-28T05:08:04.940Z,0
2023-02-28T05:09:07.747Z,0
2023-02-28T05:10:06.455Z,0
2023-02-28T05:11:04.928Z,0
2023-02-28T05:12:04.924Z,0
2023-02-28T05:13:04.941Z,0
2023-02-28T05:14:05.023Z,0
2023-02-28T05:15:04.948Z,0
2023-02-28T05:16:05.104Z,0
2023-02-28T05:17:04.962Z,0
2023-02-28T05:18:04.924Z,0
2023-02-28T05:19:05.402Z,0
2023-02-28T05:20:21.054Z,0
2023-02-28T05:21:04.955Z,0
2023-02-28T05:22:04.952Z,0
2023-02-28T05:23:04.985Z,0
2023-02-28T05:24:04.974Z,0
2023-02-28T05:25:07.810Z,0
2023-02-28T05:26:04.977Z,0
2023-02-28T05:27:04.950Z,0
2023-02-28T05:28:04.939Z,0
2023-02-28T05:29:04.969Z,0
2023-02-28T05:30:04.976Z,0
2023-02-28T05:31:04.974Z,0
2023-02-28T05:32:05.469Z,0
2023-02-28T05:33:04.961Z,0
2023-02-28T05:34:05.011Z,0
2023-02-28T05:35:04.975Z,0
2023-02-28T05:36:05.352Z,0
2023-02-28T05:37:04.941Z,0
2023-02-28T05:38:05.218Z,0
2023-02-28T05:39:04.966Z,0
2023-02-28T05:40:05.028Z,0
2023-02-28T05:41:05.012Z,0
2023-02-28T05:42:04.958Z,0
2023-02-28T05:43:05.018Z,4
2023-02-28T05:44:05.031Z,0
2023-02-28T05:45:05.020Z,4
2023-02-28T05:46:05.216Z,0
2023-02-28T05:47:04.984Z,4
2023-02-28T05:48:04.978Z,4
2023-02-28T05:49:05.564Z,4
2023-02-28T05:50:04.982Z,4
2023-02-28T05:51:05.044Z,4
2023-02-28T05:52:10.813Z,4
2023-02-28T05:53:05.013Z,4
2023-02-28T05:54:05.141Z,8
2023-02-28T05:55:05.043Z,4
2023-02-28T05:56:05.080Z,8
2023-02-28T05:57:19.021Z,12
2023-02-28T05:58:05.016Z,12
2023-02-28T05:59:05.007Z,12
2023-02-28T06:00:05.003Z,12
2023-02-28T06:01:05.092Z,16
2023-02-28T06:02:05.159Z,16
2023-02-28T06:03:07.925Z,20
2023-02-28T06:04:05.171Z,20
2023-02-28T06:05:05.054Z,20
2023-02-28T06:06:05.059Z,24
2023-02-28T06:07:05.145Z,24
2023-02-28T06:08:07.793Z,28
2023-02-28T06:09:05.053Z,32
2023-02-28T06:10:07.500Z,32
2023-02-28T06:11:05.043Z,36
2023-02-28T06:12:05.093Z,40
2023-02-28T06:13:05.036Z,44
2023-02-28T06:14:07.884Z,48
2023-02-28T06:15:07.829Z,48
2023-02-28T06:16:05.037Z,52
2023-02-28T06:17:06.346Z,56
2023-02-28T06:18:05.041Z,56
2023-02-28T06:19:08.012Z,64
2023-02-28T06:20:05.057Z,68
2023-02-28T06:21:05.128Z,80
2023-02-28T06:22:05.099Z,80
2023-02-28T06:23:05.064Z,80
2023-02-28T06:24:05.044Z,80
2023-02-28T06:25:08.204Z,84
2023-02-28T06:26:05.105Z,92
2023-02-28T06:27:05.031Z,92
2023-02-28T06:28:05.093Z,100
2023-02-28T06:29:05.107Z,104
2023-02-28T06:30:08.178Z,108
2023-02-28T06:31:05.261Z,112
2023-02-28T06:32:05.290Z,120
2023-02-28T06:33:05.109Z,124
2023-02-28T06:34:05.092Z,128
2023-02-28T06:35:05.075Z,132
2023-02-28T06:36:08.283Z,140
2023-02-28T06:37:05.053Z,144
2023-02-28T06:38:05.056Z,144
2023-02-28T06:39:05.120Z,152
2023-02-28T06:40:05.081Z,160
2023-02-28T06:41:05.291Z,164
2023-02-28T06:42:05.382Z,172
2023-02-28T06:43:05.113Z,216
2023-02-28T06:44:05.118Z,292
2023-02-28T06:45:05.106Z,332
2023-02-28T06:46:05.300Z,380
2023-02-28T06:47:07.847Z,456
2023-02-28T06:48:05.107Z,480
2023-02-28T06:49:05.080Z,464
2023-02-28T06:50:05.113Z,548
2023-02-28T06:51:05.094Z,540
2023-02-28T06:52:11.057Z,448
2023-02-28T06:53:05.058Z,376
2023-02-28T06:54:05.118Z,440
2023-02-28T06:55:05.170Z,524
2023-02-28T06:56:05.091Z,624
2023-02-28T06:57:07.882Z,572
2023-02-28T06:58:07.995Z,680
2023-02-28T06:59:05.104Z,696
2023-02-28T07:00:05.294Z,720
2023-02-28T07:01:05.215Z,948
2023-02-28T07:02:05.336Z,1044
2023-02-28T07:03:08.246Z,904
2023-02-28T07:04:08.147Z,848
2023-02-28T07:05:05.259Z,912
2023-02-28T07:06:05.130Z,752
2023-02-28T07:07:05.124Z,636
2023-02-28T07:08:05.118Z,716
2023-02-28T07:09:05.236Z,820
2023-02-28T07:10:05.126Z,852
2023-02-28T07:11:05.199Z,852
2023-02-28T07:12:05.113Z,860
2023-02-28T07:13:05.123Z,836
2023-02-28T07:14:08.186Z,764
2023-02-28T07:15:05.419Z,804
2023-02-28T07:16:05.434Z,884
2023-02-28T07:17:05.210Z,872
2023-02-28T07:18:05.121Z,880
2023-02-28T07:19:05.115Z,992
2023-02-28T07:20:05.184Z,1180
2023-02-28T07:21:05.152Z,1384
2023-02-28T07:22:05.123Z,1292
2023-02-28T07:23:05.128Z,712
2023-02-28T07:24:05.140Z,652
2023-02-28T07:25:08.026Z,1052
2023-02-28T07:26:08.176Z,1312
2023-02-28T07:27:09.562Z,1460
2023-02-28T07:28:05.564Z,1508
2023-02-28T07:29:05.205Z,1500
2023-02-28T07:30:05.133Z,1508
2023-02-28T07:31:05.348Z,1540
2023-02-28T07:32:05.417Z,1484
2023-02-28T07:33:05.186Z,1108
2023-02-28T07:34:05.793Z,1004
2023-02-28T07:35:05.483Z,1112
2023-02-28T07:36:05.473Z,1288
2023-02-28T07:37:05.146Z,1536
2023-02-28T07:38:05.193Z,1548
2023-02-28T07:39:05.180Z,1532
2023-02-28T07:40:05.540Z,1528
2023-02-28T07:41:07.292Z,1528
2023-02-28T07:42:06.566Z,1528
2023-02-28T07:43:05.183Z,1516
2023-02-28T07:44:05.302Z,1512
2023-02-28T07:45:05.214Z,1512
2023-02-28T07:46:05.191Z,1512
2023-02-28T07:47:05.377Z,1508
2023-02-28T07:48:05.209Z,1500
2023-02-28T07:49:05.275Z,1500
2023-02-28T07:50:05.191Z,1496
2023-02-28T07:51:05.194Z,1484
2023-02-28T07:52:05.277Z,1480
2023-02-28T07:53:05.553Z,1492
2023-02-28T07:54:05.392Z,1516
2023-02-28T07:55:05.237Z,1508
2023-02-28T07:56:06.410Z,1500
2023-02-28T07:57:05.180Z,1504
2023-02-28T07:58:05.321Z,1448
2023-02-28T07:59:05.450Z,1472
2023-02-28T08:00:05.455Z,1480
2023-02-28T08:01:05.615Z,1456
2023-02-28T08:02:05.441Z,1464
2023-02-28T08:03:05.197Z,1480
2023-02-28T08:04:05.204Z,1468
2023-02-28T08:05:05.514Z,1468
2023-02-28T08:06:05.229Z,1460
2023-02-28T08:07:05.215Z,1464
2023-02-28T08:08:05.214Z,1340
2023-02-28T08:09:05.211Z,1412
2023-02-28T08:10:05.246Z,1412
2023-02-28T08:11:05.280Z,1344
2023-02-28T08:12:05.209Z,1372
2023-02-28T08:13:05.410Z,1376
2023-02-28T08:14:05.268Z,1400
2023-02-28T08:15:05.299Z,1440
2023-02-28T08:16:05.517Z,1464
2023-02-28T08:17:05.231Z,1484
2023-02-28T08:18:05.306Z,1476
2023-02-28T08:19:08.041Z,1420
2023-02-28T08:20:05.287Z,1388
2023-02-28T08:21:05.506Z,1388
2023-02-28T08:22:05.246Z,1376
2023-02-28T08:23:05.589Z,1436
2023-02-28T08:24:08.307Z,1472
2023-02-28T08:25:05.269Z,1480
2023-02-28T08:26:05.218Z,1468
2023-02-28T08:27:05.219Z,1460
2023-02-28T08:28:05.240Z,1476
2023-02-28T08:29:07.938Z,1452
2023-02-28T08:30:08.381Z,1464
2023-02-28T08:31:05.273Z,1480
2023-02-28T08:32:05.715Z,1476
2023-02-28T08:33:05.547Z,1412
2023-02-28T08:34:05.257Z,1340
2023-02-28T08:35:08.123Z,1312
2023-02-28T08:36:05.771Z,1392
2023-02-28T08:37:05.343Z,1468
2023-02-28T08:38:05.225Z,1496
2023-02-28T08:39:05.275Z,1508
2023-02-28T08:40:05.337Z,1500
2023-02-28T08:41:08.309Z,1216
2023-02-28T08:42:17.078Z,1468
2023-02-28T08:43:05.249Z,1472
2023-02-28T08:44:05.223Z,1440
2023-02-28T08:45:05.261Z,1436
2023-02-28T08:46:07.522Z,1368
2023-02-28T08:47:05.281Z,1464
2023-02-28T08:48:05.282Z,1440
2023-02-28T08:49:05.244Z,1384
2023-02-28T08:50:05.332Z,1444
2023-02-28T08:51:14.000Z,1484
2023-02-28T08:52:05.558Z,1552
2023-02-28T08:53:05.307Z,1520
2023-02-28T08:54:05.265Z,1512
2023-02-28T08:55:05.264Z,1556
2023-02-28T08:56:05.267Z,1556
2023-02-28T08:57:06.972Z,1556
2023-02-28T08:58:05.298Z,1544
2023-02-28T08:59:05.255Z,1540
2023-02-28T09:00:05.292Z,1524
2023-02-28T09:01:08.511Z,1556
2023-02-28T09:02:05.282Z,1528
2023-02-28T09:03:08.408Z,1500
2023-02-28T09:04:05.422Z,1556
2023-02-28T09:05:05.296Z,1528
2023-02-28T09:06:05.235Z,1576
2023-02-28T09:07:05.329Z,1304
2023-02-28T09:08:08.327Z,1560
2023-02-28T09:09:05.317Z,1540
2023-02-28T09:10:05.392Z,1528
2023-02-28T09:11:07.039Z,1592
2023-02-28T09:12:05.399Z,1540
2023-02-28T09:13:05.315Z,1572
2023-02-28T09:14:08.206Z,1548
2023-02-28T09:15:05.370Z,1544
2023-02-28T09:16:05.393Z,1544
2023-02-28T09:17:08.583Z,1500
2023-02-28T09:18:07.535Z,1520
2023-02-28T09:19:10.603Z,1488
2023-02-28T09:20:07.449Z,1452
2023-02-28T09:21:07.350Z,1412
2023-02-28T09:22:06.581Z,1380
2023-02-28T09:23:05.357Z,1368
2023-02-28T09:24:05.367Z,1384
2023-02-28T09:25:08.134Z,1460
2023-02-28T09:26:05.404Z,1532
2023-02-28T09:27:13.530Z,1520
2023-02-28T09:28:05.326Z,1512
2023-02-28T09:29:05.299Z,1524
2023-02-28T09:30:08.433Z,1540
2023-02-28T09:31:05.962Z,1528
2023-02-28T09:32:05.707Z,1572
2023-02-28T09:33:05.328Z,1520
2023-02-28T09:34:05.549Z,1552
2023-02-28T09:35:05.325Z,1604
2023-02-28T09:36:08.384Z,1540
2023-02-28T09:37:05.838Z,1576
2023-02-28T09:38:05.327Z,1480
2023-02-28T09:39:08.527Z,1568
2023-02-28T09:40:05.346Z,1588
2023-02-28T09:41:08.436Z,1576
2023-02-28T09:42:05.359Z,1596
2023-02-28T09:43:05.406Z,1640
2023-02-28T09:44:05.323Z,1652
2023-02-28T09:45:05.428Z,1664
2023-02-28T09:46:05.552Z,1672
2023-02-28T09:47:08.253Z,1676
2023-02-28T09:48:05.383Z,1660
2023-02-28T09:49:05.315Z,1648
2023-02-28T09:50:05.409Z,1632
2023-02-28T09:51:05.365Z,1632
2023-02-28T09:52:08.413Z,1596
2023-02-28T09:53:05.407Z,1624
2023-02-28T09:54:08.771Z,1620
2023-02-28T09:55:08.458Z,1628
2023-02-28T09:56:05.413Z,1620
2023-02-28T09:57:05.349Z,1624
2023-02-28T09:58:05.431Z,1616
2023-02-28T09:59:05.395Z,1608
2023-02-28T10:00:05.402Z,1624
2023-02-28T10:01:05.663Z,1620
2023-02-28T10:02:05.440Z,1620
2023-02-28T10:03:06.557Z,1624
2023-02-28T10:04:05.351Z,1636
2023-02-28T10:05:05.861Z,1632
2023-02-28T10:06:05.204Z,1608
2023-02-28T10:07:05.378Z,1592
2023-02-28T10:08:05.408Z,1580
2023-02-28T10:09:05.409Z,1568
2023-02-28T10:10:05.372Z,1564
2023-02-28T10:11:05.446Z,1572
2023-02-28T10:12:05.959Z,1584
2023-02-28T10:13:05.405Z,1580
2023-02-28T10:14:05.369Z,1580
2023-02-28T10:15:05.425Z,1588
2023-02-28T10:16:05.559Z,1544
2023-02-28T10:17:05.393Z,1568
2023-02-28T10:18:17.272Z,1516
2023-02-28T10:19:05.398Z,472
2023-02-28T10:20:05.419Z,1220
2023-02-28T10:21:05.412Z,1192
2023-02-28T10:22:05.456Z,1608
2023-02-28T10:23:05.484Z,1056
2023-02-28T10:24:05.379Z,1536
2023-02-28T10:25:09.131Z,1208
2023-02-28T10:26:05.411Z,1548
2023-02-28T10:27:05.486Z,1580
2023-02-28T10:28:05.435Z,964
2023-02-28T10:29:05.394Z,1340
2023-02-28T10:30:05.426Z,1512
2023-02-28T10:31:05.686Z,1620
2023-02-28T10:32:05.593Z,540
2023-02-28T10:33:05.604Z,1580
2023-02-28T10:34:05.421Z,1480
2023-02-28T10:35:05.413Z,1516
2023-02-28T10:36:05.640Z,1524
2023-02-28T10:37:05.416Z,1512
2023-02-28T10:38:05.449Z,1520
2023-02-28T10:39:05.457Z,1532
2023-02-28T10:40:05.483Z,1536
2023-02-28T10:41:05.428Z,1544
2023-02-28T10:42:05.508Z,1552
2023-02-28T10:43:05.473Z,1548
2023-02-28T10:44:05.464Z,1532
2023-02-28T10:45:05.431Z,1516
2023-02-28T10:46:08.469Z,1508
2023-02-28T10:47:05.442Z,1504
2023-02-28T10:48:05.519Z,1508
2023-02-28T10:49:05.557Z,1512
2023-02-28T10:50:07.624Z,1476
2023-02-28T10:51:05.497Z,1488
2023-02-28T10:52:05.438Z,1484
2023-02-28T10:53:07.353Z,1464
2023-02-28T10:54:09.596Z,1300
2023-02-28T10:55:05.452Z,472
2023-02-28T10:56:05.480Z,1140
2023-02-28T10:57:08.222Z,1420
2023-02-28T10:58:05.550Z,1400
2023-02-28T10:59:05.556Z,1108
2023-02-28T11:00:05.505Z,1428
2023-02-28T11:01:05.446Z,1396
2023-02-28T11:02:10.799Z,1408
2023-02-28T11:03:05.468Z,1404
2023-02-28T11:04:05.458Z,1392
2023-02-28T11:05:05.709Z,1380
2023-02-28T11:06:05.465Z,1392
2023-02-28T11:07:05.492Z,1368
2023-02-28T11:08:08.316Z,852
2023-02-28T11:09:05.468Z,404
2023-02-28T11:10:05.459Z,524
2023-02-28T11:11:05.495Z,1304
2023-02-28T11:12:05.448Z,1320
2023-02-28T11:13:09.032Z,1316
2023-02-28T11:14:05.488Z,1260
2023-02-28T11:15:05.577Z,1284
2023-02-28T11:16:05.806Z,1280
2023-02-28T11:17:08.433Z,1272
2023-02-28T11:18:05.556Z,1264
2023-02-28T11:19:05.694Z,1264
2023-02-28T11:20:05.525Z,1240
2023-02-28T11:21:05.520Z,1232
2023-02-28T11:22:05.548Z,1216
2023-02-28T11:23:05.558Z,1204
2023-02-28T11:24:08.441Z,1204
2023-02-28T11:25:05.526Z,1196
2023-02-28T11:26:05.486Z,1192
2023-02-28T11:27:05.586Z,1160
2023-02-28T11:28:05.523Z,1168
2023-02-28T11:29:05.510Z,1160
2023-02-28T11:30:08.519Z,1128
2023-02-28T11:31:05.791Z,1100
2023-02-28T11:32:05.814Z,1080
2023-02-28T11:33:05.778Z,1104
2023-02-28T11:34:05.534Z,1076
2023-02-28T11:35:08.650Z,1080
2023-02-28T11:36:05.658Z,1068
2023-02-28T11:37:05.507Z,1068
2023-02-28T11:38:05.566Z,1060
2023-02-28T11:39:05.476Z,1044
2023-02-28T11:40:05.495Z,1036
2023-02-28T11:41:08.530Z,1032
2023-02-28T11:42:05.592Z,1016
2023-02-28T11:43:05.552Z,1004
2023-02-28T11:44:05.523Z,1012
2023-02-28T11:45:05.542Z,1004
2023-02-28T11:46:08.408Z,992
2023-02-28T11:47:05.546Z,988
2023-02-28T11:48:05.542Z,976
2023-02-28T11:49:05.498Z,968
2023-02-28T11:50:05.546Z,956
2023-02-28T11:51:08.565Z,944
2023-02-28T11:52:08.415Z,944
2023-02-28T11:53:05.568Z,944
2023-02-28T11:54:05.576Z,940
2023-02-28T11:55:05.549Z,924
2023-02-28T11:56:05.606Z,920
2023-02-28T11:57:08.835Z,908
2023-02-28T11:58:05.554Z,896
2023-02-28T11:59:05.591Z,892
2023-02-28T12:00:05.643Z,888
2023-02-28T12:01:05.564Z,888
2023-02-28T12:02:05.808Z,876
2023-02-28T12:03:08.563Z,872
2023-02-28T12:04:05.595Z,868
2023-02-28T12:05:07.106Z,860
2023-02-28T12:06:05.657Z,848
2023-02-28T12:07:05.562Z,852
2023-02-28T12:08:08.424Z,848
2023-02-28T12:09:05.557Z,836
2023-02-28T12:10:05.582Z,832
2023-02-28T12:11:05.609Z,832
2023-02-28T12:12:05.602Z,820
2023-02-28T12:13:05.632Z,820
2023-02-28T12:14:05.603Z,824
2023-02-28T12:15:05.599Z,816
2023-02-28T12:16:05.781Z,800
2023-02-28T12:17:05.598Z,792
2023-02-28T12:18:05.639Z,788
2023-02-28T12:19:08.601Z,788
2023-02-28T12:20:05.581Z,776
2023-02-28T12:21:05.599Z,772
2023-02-28T12:22:05.584Z,784
2023-02-28T12:23:05.696Z,784
2023-02-28T12:24:05.565Z,780
2023-02-28T12:25:11.199Z,780
2023-02-28T12:26:05.638Z,764
2023-02-28T12:27:05.601Z,756
2023-02-28T12:28:05.633Z,748
2023-02-28T12:29:05.604Z,760
2023-02-28T12:30:08.379Z,752
2023-02-28T12:31:05.668Z,752
2023-02-28T12:32:06.131Z,756
2023-02-28T12:33:05.647Z,756
2023-02-28T12:34:05.734Z,756
2023-02-28T12:35:05.642Z,756
2023-02-28T12:36:05.758Z,756
2023-02-28T12:37:05.635Z,744
2023-02-28T12:38:05.522Z,736
2023-02-28T12:39:05.661Z,720
2023-02-28T12:40:05.629Z,400
2023-02-28T12:41:05.668Z,720
2023-02-28T12:42:05.670Z,724
2023-02-28T12:43:05.679Z,724
2023-02-28T12:44:05.662Z,728
2023-02-28T12:45:05.635Z,728
2023-02-28T12:46:09.137Z,708
2023-02-28T12:47:05.629Z,712
2023-02-28T12:48:05.723Z,704
2023-02-28T12:49:05.675Z,704
2023-02-28T12:50:05.716Z,696
2023-02-28T12:51:07.761Z,720
2023-02-28T12:52:05.615Z,720
2023-02-28T12:53:05.757Z,716
2023-02-28T12:54:05.670Z,716
2023-02-28T12:55:05.659Z,716
2023-02-28T12:56:05.645Z,712
2023-02-28T12:57:05.663Z,712
2023-02-28T12:58:05.679Z,708
2023-02-28T12:59:05.639Z,704
2023-02-28T13:00:05.654Z,704
2023-02-28T13:01:05.768Z,692
2023-02-28T13:02:05.874Z,696
2023-02-28T13:03:07.591Z,700
2023-02-28T13:04:05.680Z,692
2023-02-28T13:05:05.700Z,696
2023-02-28T13:06:05.756Z,688
2023-02-28T13:07:05.761Z,688
2023-02-28T13:08:05.671Z,612
2023-02-28T13:09:05.680Z,644
2023-02-28T13:10:05.738Z,696
2023-02-28T13:11:21.462Z,700
2023-02-28T13:12:05.642Z,696
2023-02-28T13:13:08.819Z,696
2023-02-28T13:14:05.669Z,692
2023-02-28T13:15:05.756Z,692
2023-02-28T13:16:05.686Z,688
2023-02-28T13:17:06.170Z,688
2023-02-28T13:18:05.751Z,676
2023-02-28T13:19:05.673Z,676
2023-02-28T13:20:05.685Z,672
2023-02-28T13:21:05.695Z,684
2023-02-28T13:22:05.762Z,684
2023-02-28T13:23:05.739Z,688
2023-02-28T13:24:08.861Z,688
2023-02-28T13:25:05.689Z,664
2023-02-28T13:26:05.710Z,680
2023-02-28T13:27:05.679Z,696
2023-02-28T13:28:05.711Z,704
2023-02-28T13:29:08.586Z,664
2023-02-28T13:30:05.722Z,688
2023-02-28T13:31:05.948Z,676
2023-02-28T13:32:05.926Z,680
2023-02-28T13:33:05.780Z,684
2023-02-28T13:34:05.696Z,684
2023-02-28T13:35:08.730Z,688
2023-02-28T13:36:05.804Z,672
2023-02-28T13:37:05.692Z,672
2023-02-28T13:38:05.767Z,660
2023-02-28T13:39:05.888Z,684
2023-02-28T13:40:06.863Z,684
2023-02-28T13:41:05.747Z,684
2023-02-28T13:42:05.823Z,688
2023-02-28T13:43:05.827Z,700
2023-02-28T13:44:05.747Z,688
2023-02-28T13:45:05.736Z,688
2023-02-28T13:46:08.617Z,692
2023-02-28T13:47:05.724Z,708
2023-02-28T13:48:05.779Z,688
2023-02-28T13:49:05.573Z,680
2023-02-28T13:50:05.895Z,676
2023-02-28T13:51:08.530Z,676
2023-02-28T13:52:05.722Z,676
2023-02-28T13:53:05.753Z,676
2023-02-28T13:54:05.819Z,676
2023-02-28T13:55:05.771Z,676
2023-02-28T13:56:05.804Z,672
2023-02-28T13:57:08.640Z,668
2023-02-28T13:58:05.755Z,668
2023-02-28T13:59:05.765Z,672
2023-02-28T14:00:05.771Z,668
2023-02-28T14:01:05.888Z,664
2023-02-28T14:02:08.545Z,664